sensor_id;sensor_type;location;lat;lon;timestamp;P1;durP1;ratioP1;P2;durP2;ratioP2
32826;SDS011;51059;42.058;27.986;2023-01-29T00:02:14;17.97;;;11.40;;
32826;SDS011;51059;42.058;27.986;2023-01-29T00:04:40;17.90;;;11.43;;
32826;SDS011;51059;42.058;27.986;2023-01-29T00:07:06;18.60;;;11.27;;
32826;SDS011;51059;42.058;27.986;2023-01-29T00:09:32;15.87;;;11.27;;
32826;SDS011;51059;42.058;27.986;2023-01-29T00:11:58;18.20;;;11.80;;
32826;SDS011;51059;42.058;27.986;2023-01-29T00:14:24;18.23;;;11.73;;
32826;SDS011;51059;42.058;27.986;2023-01-29T00:16:51;17.07;;;11.33;;
32826;SDS011;51059;42.058;27.986;2023-01-29T00:19:16;17.80;;;11.37;;
32826;SDS011;51059;42.058;27.986;2023-01-29T00:21:43;16.83;;;11.40;;
32826;SDS011;51059;42.058;27.986;2023-01-29T00:24:09;16.53;;;11.30;;
32826;SDS011;51059;42.058;27.986;2023-01-29T00:26:35;17.87;;;11.93;;
32826;SDS011;51059;42.058;27.986;2023-01-29T00:29:03;16.57;;;11.10;;
32826;SDS011;51059;42.058;27.986;2023-01-29T00:31:29;17.10;;;11.17;;
32826;SDS011;51059;42.058;27.986;2023-01-29T00:33:54;15.87;;;10.37;;
32826;SDS011;51059;42.058;27.986;2023-01-29T00:36:21;17.53;;;11.23;;
32826;SDS011;51059;42.058;27.986;2023-01-29T00:38:47;16.40;;;11.03;;
32826;SDS011;51059;42.058;27.986;2023-01-29T00:41:22;16.80;;;11.37;;
32826;SDS011;51059;42.058;27.986;2023-01-29T00:44:09;17.77;;;11.80;;
32826;SDS011;51059;42.058;27.986;2023-01-29T00:46:53;19.57;;;12.00;;
32826;SDS011;51059;42.058;27.986;2023-01-29T00:49:18;17.20;;;11.40;;
32826;SDS011;51059;42.058;27.986;2023-01-29T00:51:44;16.90;;;11.07;;
32826;SDS011;51059;42.058;27.986;2023-01-29T00:54:30;18.27;;;10.77;;
32826;SDS011;51059;42.058;27.986;2023-01-29T00:56:55;17.13;;;11.30;;
32826;SDS011;51059;42.058;27.986;2023-01-29T00:59:21;16.37;;;10.83;;
32826;SDS011;51059;42.058;27.986;2023-01-29T01:01:46;17.17;;;10.93;;
32826;SDS011;51059;42.058;27.986;2023-01-29T01:04:30;16.00;;;11.43;;
32826;SDS011;51059;42.058;27.986;2023-01-29T01:06:56;17.27;;;11.50;;
32826;SDS011;51059;42.058;27.986;2023-01-29T01:09:21;17.33;;;11.63;;
32826;SDS011;51059;42.058;27.986;2023-01-29T01:12:05;18.67;;;12.37;;
32826;SDS011;51059;42.058;27.986;2023-01-29T01:14:32;17.00;;;11.37;;
32826;SDS011;51059;42.058;27.986;2023-01-29T01:17:00;16.20;;;11.00;;
32826;SDS011;51059;42.058;27.986;2023-01-29T01:19:25;16.93;;;11.13;;
32826;SDS011;51059;42.058;27.986;2023-01-29T01:21:51;17.30;;;11.90;;
32826;SDS011;51059;42.058;27.986;2023-01-29T01:24:17;17.97;;;12.47;;
32826;SDS011;51059;42.058;27.986;2023-01-29T01:26:44;18.37;;;12.17;;
32826;SDS011;51059;42.058;27.986;2023-01-29T01:29:10;20.87;;;12.07;;
32826;SDS011;51059;42.058;27.986;2023-01-29T01:31:35;18.70;;;11.97;;
32826;SDS011;51059;42.058;27.986;2023-01-29T01:34:01;19.00;;;12.83;;
32826;SDS011;51059;42.058;27.986;2023-01-29T01:36:26;18.30;;;12.30;;
32826;SDS011;51059;42.058;27.986;2023-01-29T01:38:52;18.47;;;12.47;;
32826;SDS011;51059;42.058;27.986;2023-01-29T01:41:20;21.07;;;13.07;;
32826;SDS011;51059;42.058;27.986;2023-01-29T01:43:52;17.70;;;12.20;;
32826;SDS011;51059;42.058;27.986;2023-01-29T01:46:18;20.83;;;12.77;;
32826;SDS011;51059;42.058;27.986;2023-01-29T01:48:44;22.20;;;13.67;;
32826;SDS011;51059;42.058;27.986;2023-01-29T01:51:11;20.03;;;12.83;;
32826;SDS011;51059;42.058;27.986;2023-01-29T01:53:39;21.80;;;13.00;;
32826;SDS011;51059;42.058;27.986;2023-01-29T01:56:08;18.33;;;11.83;;
32826;SDS011;51059;42.058;27.986;2023-01-29T01:58:38;20.13;;;11.67;;
32826;SDS011;51059;42.058;27.986;2023-01-29T02:01:06;23.87;;;12.07;;
32826;SDS011;51059;42.058;27.986;2023-01-29T02:03:34;22.93;;;12.67;;
32826;SDS011;51059;42.058;27.986;2023-01-29T02:06:29;21.60;;;12.67;;
32826;SDS011;51059;42.058;27.986;2023-01-29T02:09:18;25.13;;;12.20;;
32826;SDS011;51059;42.058;27.986;2023-01-29T02:12:03;20.67;;;11.93;;
32826;SDS011;51059;42.058;27.986;2023-01-29T02:14:36;26.90;;;13.43;;
32826;SDS011;51059;42.058;27.986;2023-01-29T02:17:07;34.90;;;13.17;;
32826;SDS011;51059;42.058;27.986;2023-01-29T02:19:49;21.53;;;12.63;;
32826;SDS011;51059;42.058;27.986;2023-01-29T02:28:20;20.13;;;12.40;;
32826;SDS011;51059;42.058;27.986;2023-01-29T02:39:16;18.73;;;11.80;;
32826;SDS011;51059;42.058;27.986;2023-01-29T02:44:39;20.00;;;11.77;;
32826;SDS011;51059;42.058;27.986;2023-01-29T02:47:41;18.53;;;11.63;;
32826;SDS011;51059;42.058;27.986;2023-01-29T02:52:45;18.50;;;11.27;;
32826;SDS011;51059;42.058;27.986;2023-01-29T02:55:23;22.63;;;11.90;;
32826;SDS011;51059;42.058;27.986;2023-01-29T02:57:55;20.83;;;12.50;;
32826;SDS011;51059;42.058;27.986;2023-01-29T03:00:32;19.40;;;11.13;;
32826;SDS011;51059;42.058;27.986;2023-01-29T03:03:02;22.57;;;11.73;;
32826;SDS011;51059;42.058;27.986;2023-01-29T03:08:10;16.37;;;10.47;;
32826;SDS011;51059;42.058;27.986;2023-01-29T03:10:41;18.90;;;11.07;;
32826;SDS011;51059;42.058;27.986;2023-01-29T03:13:17;20.90;;;11.03;;
32826;SDS011;51059;42.058;27.986;2023-01-29T03:15:50;16.73;;;10.13;;
32826;SDS011;51059;42.058;27.986;2023-01-29T03:18:25;18.37;;;11.00;;
32826;SDS011;51059;42.058;27.986;2023-01-29T03:20:57;17.27;;;10.93;;
32826;SDS011;51059;42.058;27.986;2023-01-29T03:23:28;16.10;;;10.50;;
32826;SDS011;51059;42.058;27.986;2023-01-29T03:26:16;18.40;;;10.87;;
32826;SDS011;51059;42.058;27.986;2023-01-29T03:29:02;21.10;;;11.27;;
32826;SDS011;51059;42.058;27.986;2023-01-29T03:31:47;19.60;;;11.10;;
32826;SDS011;51059;42.058;27.986;2023-01-29T03:34:32;15.07;;;10.30;;
32826;SDS011;51059;42.058;27.986;2023-01-29T03:37:17;17.43;;;10.43;;
32826;SDS011;51059;42.058;27.986;2023-01-29T03:39:50;21.27;;;10.70;;
32826;SDS011;51059;42.058;27.986;2023-01-29T03:42:26;18.93;;;11.77;;
32826;SDS011;51059;42.058;27.986;2023-01-29T03:47:26;17.87;;;10.60;;
32826;SDS011;51059;42.058;27.986;2023-01-29T03:55:22;17.57;;;10.73;;
32826;SDS011;51059;42.058;27.986;2023-01-29T03:58:08;22.13;;;11.47;;
32826;SDS011;51059;42.058;27.986;2023-01-29T04:00:48;17.17;;;11.57;;
32826;SDS011;51059;42.058;27.986;2023-01-29T04:03:20;18.40;;;11.13;;
32826;SDS011;51059;42.058;27.986;2023-01-29T04:08:26;19.07;;;11.17;;
32826;SDS011;51059;42.058;27.986;2023-01-29T04:10:53;18.63;;;11.13;;
32826;SDS011;51059;42.058;27.986;2023-01-29T04:13:21;18.83;;;11.40;;
32826;SDS011;51059;42.058;27.986;2023-01-29T04:15:49;17.07;;;10.53;;
32826;SDS011;51059;42.058;27.986;2023-01-29T04:18:18;20.43;;;11.23;;
32826;SDS011;51059;42.058;27.986;2023-01-29T04:20:44;21.23;;;11.10;;
32826;SDS011;51059;42.058;27.986;2023-01-29T04:23:20;17.97;;;11.30;;
32826;SDS011;51059;42.058;27.986;2023-01-29T04:25:51;17.10;;;10.70;;
32826;SDS011;51059;42.058;27.986;2023-01-29T04:31:33;18.07;;;10.83;;
32826;SDS011;51059;42.058;27.986;2023-01-29T04:39:23;19.67;;;10.63;;
32826;SDS011;51059;42.058;27.986;2023-01-29T04:41:52;17.93;;;10.83;;
32826;SDS011;51059;42.058;27.986;2023-01-29T04:55:07;18.37;;;10.40;;
32826;SDS011;51059;42.058;27.986;2023-01-29T04:57:44;16.23;;;9.70;;
32826;SDS011;51059;42.058;27.986;2023-01-29T05:00:32;15.10;;;9.63;;
32826;SDS011;51059;42.058;27.986;2023-01-29T05:02:59;17.30;;;9.87;;
32826;SDS011;51059;42.058;27.986;2023-01-29T05:05:26;17.07;;;9.90;;
32826;SDS011;51059;42.058;27.986;2023-01-29T05:07:52;19.07;;;10.37;;
32826;SDS011;51059;42.058;27.986;2023-01-29T05:10:19;16.27;;;9.80;;
32826;SDS011;51059;42.058;27.986;2023-01-29T05:12:47;16.13;;;9.70;;
32826;SDS011;51059;42.058;27.986;2023-01-29T05:15:18;16.83;;;9.40;;
32826;SDS011;51059;42.058;27.986;2023-01-29T05:17:45;18.17;;;10.40;;
32826;SDS011;51059;42.058;27.986;2023-01-29T05:20:11;16.83;;;9.97;;
32826;SDS011;51059;42.058;27.986;2023-01-29T05:22:38;16.67;;;9.80;;
32826;SDS011;51059;42.058;27.986;2023-01-29T05:25:10;18.50;;;10.30;;
32826;SDS011;51059;42.058;27.986;2023-01-29T05:27:45;15.07;;;8.60;;
32826;SDS011;51059;42.058;27.986;2023-01-29T05:30:33;20.97;;;10.47;;
32826;SDS011;51059;42.058;27.986;2023-01-29T05:33:00;18.77;;;9.90;;
32826;SDS011;51059;42.058;27.986;2023-01-29T05:35:26;19.50;;;9.40;;
32826;SDS011;51059;42.058;27.986;2023-01-29T05:37:53;16.57;;;8.90;;
32826;SDS011;51059;42.058;27.986;2023-01-29T05:40:22;21.17;;;9.40;;
32826;SDS011;51059;42.058;27.986;2023-01-29T05:42:48;16.30;;;9.90;;
32826;SDS011;51059;42.058;27.986;2023-01-29T05:45:15;14.97;;;8.50;;
32826;SDS011;51059;42.058;27.986;2023-01-29T05:47:42;14.80;;;9.03;;
32826;SDS011;51059;42.058;27.986;2023-01-29T05:50:08;18.67;;;9.17;;
32826;SDS011;51059;42.058;27.986;2023-01-29T05:52:34;18.70;;;9.63;;
32826;SDS011;51059;42.058;27.986;2023-01-29T05:54:59;14.63;;;8.50;;
32826;SDS011;51059;42.058;27.986;2023-01-29T05:57:25;19.17;;;8.03;;
32826;SDS011;51059;42.058;27.986;2023-01-29T05:59:50;14.27;;;7.73;;
32826;SDS011;51059;42.058;27.986;2023-01-29T06:02:16;17.47;;;9.47;;
32826;SDS011;51059;42.058;27.986;2023-01-29T06:04:41;18.20;;;9.17;;
32826;SDS011;51059;42.058;27.986;2023-01-29T06:07:07;18.50;;;8.80;;
32826;SDS011;51059;42.058;27.986;2023-01-29T06:09:33;13.50;;;8.13;;
32826;SDS011;51059;42.058;27.986;2023-01-29T06:11:58;16.97;;;8.97;;
32826;SDS011;51059;42.058;27.986;2023-01-29T06:14:24;18.30;;;8.60;;
32826;SDS011;51059;42.058;27.986;2023-01-29T06:16:49;16.33;;;9.17;;
32826;SDS011;51059;42.058;27.986;2023-01-29T06:19:15;14.43;;;8.93;;
32826;SDS011;51059;42.058;27.986;2023-01-29T06:21:42;14.70;;;8.07;;
32826;SDS011;51059;42.058;27.986;2023-01-29T06:24:07;14.77;;;8.50;;
32826;SDS011;51059;42.058;27.986;2023-01-29T06:26:33;14.30;;;8.20;;
32826;SDS011;51059;42.058;27.986;2023-01-29T06:28:59;16.43;;;9.23;;
32826;SDS011;51059;42.058;27.986;2023-01-29T06:31:24;17.40;;;8.57;;
32826;SDS011;51059;42.058;27.986;2023-01-29T06:33:50;25.03;;;9.80;;
32826;SDS011;51059;42.058;27.986;2023-01-29T06:36:15;14.53;;;8.23;;
32826;SDS011;51059;42.058;27.986;2023-01-29T06:38:41;15.27;;;8.50;;
32826;SDS011;51059;42.058;27.986;2023-01-29T06:41:10;15.13;;;8.60;;
32826;SDS011;51059;42.058;27.986;2023-01-29T06:43:37;13.87;;;8.17;;
32826;SDS011;51059;42.058;27.986;2023-01-29T06:46:03;17.40;;;9.57;;
32826;SDS011;51059;42.058;27.986;2023-01-29T06:48:32;16.83;;;9.20;;
32826;SDS011;51059;42.058;27.986;2023-01-29T06:51:04;16.23;;;9.77;;
32826;SDS011;51059;42.058;27.986;2023-01-29T06:53:31;17.60;;;9.13;;
32826;SDS011;51059;42.058;27.986;2023-01-29T06:55:57;16.27;;;8.90;;
32826;SDS011;51059;42.058;27.986;2023-01-29T06:58:23;15.93;;;9.20;;
32826;SDS011;51059;42.058;27.986;2023-01-29T07:00:49;19.53;;;9.47;;
32826;SDS011;51059;42.058;27.986;2023-01-29T07:03:14;18.57;;;9.30;;
32826;SDS011;51059;42.058;27.986;2023-01-29T07:05:40;18.23;;;9.77;;
32826;SDS011;51059;42.058;27.986;2023-01-29T07:08:06;18.33;;;8.80;;
32826;SDS011;51059;42.058;27.986;2023-01-29T07:10:32;14.60;;;8.63;;
32826;SDS011;51059;42.058;27.986;2023-01-29T07:12:58;17.60;;;8.70;;
32826;SDS011;51059;42.058;27.986;2023-01-29T07:15:24;17.47;;;8.90;;
32826;SDS011;51059;42.058;27.986;2023-01-29T07:18:00;15.17;;;8.80;;
32826;SDS011;51059;42.058;27.986;2023-01-29T07:20:28;17.27;;;9.20;;
32826;SDS011;51059;42.058;27.986;2023-01-29T07:22:57;16.97;;;8.77;;
32826;SDS011;51059;42.058;27.986;2023-01-29T07:25:23;17.73;;;8.97;;
32826;SDS011;51059;42.058;27.986;2023-01-29T07:27:49;15.63;;;8.87;;
32826;SDS011;51059;42.058;27.986;2023-01-29T07:30:15;17.10;;;8.97;;
32826;SDS011;51059;42.058;27.986;2023-01-29T07:32:41;15.63;;;8.67;;
32826;SDS011;51059;42.058;27.986;2023-01-29T07:35:07;17.30;;;8.90;;
32826;SDS011;51059;42.058;27.986;2023-01-29T07:37:33;23.00;;;9.13;;
32826;SDS011;51059;42.058;27.986;2023-01-29T07:39:59;22.47;;;9.70;;
32826;SDS011;51059;42.058;27.986;2023-01-29T07:42:24;16.97;;;9.17;;
32826;SDS011;51059;42.058;27.986;2023-01-29T07:44:50;16.53;;;9.03;;
32826;SDS011;51059;42.058;27.986;2023-01-29T07:47:15;18.83;;;8.80;;
32826;SDS011;51059;42.058;27.986;2023-01-29T07:49:41;16.60;;;8.70;;
32826;SDS011;51059;42.058;27.986;2023-01-29T07:52:06;12.30;;;7.80;;
32826;SDS011;51059;42.058;27.986;2023-01-29T07:54:32;17.10;;;8.73;;
32826;SDS011;51059;42.058;27.986;2023-01-29T07:56:57;13.67;;;8.23;;
32826;SDS011;51059;42.058;27.986;2023-01-29T07:59:23;17.43;;;8.63;;
32826;SDS011;51059;42.058;27.986;2023-01-29T08:01:49;16.43;;;8.23;;
32826;SDS011;51059;42.058;27.986;2023-01-29T08:04:14;15.93;;;8.13;;
32826;SDS011;51059;42.058;27.986;2023-01-29T08:06:40;17.83;;;8.20;;
32826;SDS011;51059;42.058;27.986;2023-01-29T08:09:05;13.33;;;7.90;;
32826;SDS011;51059;42.058;27.986;2023-01-29T08:11:32;16.60;;;8.10;;
32826;SDS011;51059;42.058;27.986;2023-01-29T08:13:58;13.70;;;8.10;;
32826;SDS011;51059;42.058;27.986;2023-01-29T08:16:23;15.33;;;7.63;;
32826;SDS011;51059;42.058;27.986;2023-01-29T08:18:49;13.20;;;7.40;;
32826;SDS011;51059;42.058;27.986;2023-01-29T08:21:14;11.63;;;7.50;;
32826;SDS011;51059;42.058;27.986;2023-01-29T08:23:40;11.60;;;7.23;;
32826;SDS011;51059;42.058;27.986;2023-01-29T08:26:06;14.80;;;7.63;;
32826;SDS011;51059;42.058;27.986;2023-01-29T08:28:32;13.80;;;7.83;;
32826;SDS011;51059;42.058;27.986;2023-01-29T08:30:57;13.50;;;7.40;;
32826;SDS011;51059;42.058;27.986;2023-01-29T08:33:23;13.90;;;7.80;;
32826;SDS011;51059;42.058;27.986;2023-01-29T08:35:51;13.20;;;7.87;;
32826;SDS011;51059;42.058;27.986;2023-01-29T08:38:17;16.83;;;7.53;;
32826;SDS011;51059;42.058;27.986;2023-01-29T08:40:43;12.90;;;7.97;;
32826;SDS011;51059;42.058;27.986;2023-01-29T08:43:09;11.63;;;7.17;;
32826;SDS011;51059;42.058;27.986;2023-01-29T08:45:39;13.27;;;7.40;;
32826;SDS011;51059;42.058;27.986;2023-01-29T08:48:06;10.93;;;6.70;;
32826;SDS011;51059;42.058;27.986;2023-01-29T08:50:32;14.63;;;7.17;;
32826;SDS011;51059;42.058;27.986;2023-01-29T08:52:59;14.40;;;7.27;;
32826;SDS011;51059;42.058;27.986;2023-01-29T08:55:26;12.33;;;6.70;;
32826;SDS011;51059;42.058;27.986;2023-01-29T08:57:51;14.67;;;6.13;;
32826;SDS011;51059;42.058;27.986;2023-01-29T09:00:17;11.17;;;6.77;;
32826;SDS011;51059;42.058;27.986;2023-01-29T09:02:43;11.93;;;7.30;;
32826;SDS011;51059;42.058;27.986;2023-01-29T09:05:09;13.40;;;7.27;;
32826;SDS011;51059;42.058;27.986;2023-01-29T09:07:34;25.33;;;8.50;;
32826;SDS011;51059;42.058;27.986;2023-01-29T09:10:00;13.57;;;6.67;;
32826;SDS011;51059;42.058;27.986;2023-01-29T09:12:26;13.37;;;6.73;;
32826;SDS011;51059;42.058;27.986;2023-01-29T09:14:51;11.80;;;6.97;;
32826;SDS011;51059;42.058;27.986;2023-01-29T09:17:17;15.47;;;7.40;;
32826;SDS011;51059;42.058;27.986;2023-01-29T09:19:43;15.17;;;7.53;;
32826;SDS011;51059;42.058;27.986;2023-01-29T09:22:09;11.40;;;7.40;;
32826;SDS011;51059;42.058;27.986;2023-01-29T09:24:34;13.87;;;8.13;;
32826;SDS011;51059;42.058;27.986;2023-01-29T09:27:00;13.63;;;7.47;;
32826;SDS011;51059;42.058;27.986;2023-01-29T09:29:26;11.43;;;6.93;;
32826;SDS011;51059;42.058;27.986;2023-01-29T09:31:52;12.43;;;7.40;;
32826;SDS011;51059;42.058;27.986;2023-01-29T09:34:17;13.83;;;7.73;;
32826;SDS011;51059;42.058;27.986;2023-01-29T09:36:43;12.77;;;7.70;;
32826;SDS011;51059;42.058;27.986;2023-01-29T09:39:08;19.13;;;7.87;;
32826;SDS011;51059;42.058;27.986;2023-01-29T09:44:10;13.87;;;7.03;;
32826;SDS011;51059;42.058;27.986;2023-01-29T09:46:40;13.93;;;7.20;;
32826;SDS011;51059;42.058;27.986;2023-01-29T09:49:23;16.07;;;8.00;;
32826;SDS011;51059;42.058;27.986;2023-01-29T09:51:52;13.60;;;7.13;;
32826;SDS011;51059;42.058;27.986;2023-01-29T09:54:23;13.90;;;8.37;;
32826;SDS011;51059;42.058;27.986;2023-01-29T09:56:52;14.17;;;7.30;;
32826;SDS011;51059;42.058;27.986;2023-01-29T09:59:21;13.70;;;7.33;;
32826;SDS011;51059;42.058;27.986;2023-01-29T10:09:46;18.53;;;8.97;;
32826;SDS011;51059;42.058;27.986;2023-01-29T10:12:41;18.10;;;8.80;;
32826;SDS011;51059;42.058;27.986;2023-01-29T10:21:06;16.33;;;9.07;;
32826;SDS011;51059;42.058;27.986;2023-01-29T10:24:01;16.80;;;9.27;;
32826;SDS011;51059;42.058;27.986;2023-01-29T10:26:28;18.07;;;9.67;;
32826;SDS011;51059;42.058;27.986;2023-01-29T10:28:54;18.33;;;9.63;;
32826;SDS011;51059;42.058;27.986;2023-01-29T10:31:23;17.23;;;9.77;;
32826;SDS011;51059;42.058;27.986;2023-01-29T10:33:54;17.40;;;9.33;;
32826;SDS011;51059;42.058;27.986;2023-01-29T10:36:25;15.90;;;9.50;;
32826;SDS011;51059;42.058;27.986;2023-01-29T10:38:59;17.97;;;9.23;;
32826;SDS011;51059;42.058;27.986;2023-01-29T10:41:28;20.30;;;9.97;;
32826;SDS011;51059;42.058;27.986;2023-01-29T10:46:45;17.23;;;8.53;;
32826;SDS011;51059;42.058;27.986;2023-01-29T10:52:17;15.90;;;8.50;;
32826;SDS011;51059;42.058;27.986;2023-01-29T10:54:48;16.13;;;8.40;;
32826;SDS011;51059;42.058;27.986;2023-01-29T11:00:21;16.30;;;8.37;;
32826;SDS011;51059;42.058;27.986;2023-01-29T11:02:49;18.77;;;9.00;;
32826;SDS011;51059;42.058;27.986;2023-01-29T11:05:32;18.43;;;8.43;;
32826;SDS011;51059;42.058;27.986;2023-01-29T11:08:07;18.10;;;8.47;;
32826;SDS011;51059;42.058;27.986;2023-01-29T11:10:40;16.00;;;9.13;;
32826;SDS011;51059;42.058;27.986;2023-01-29T11:13:15;29.43;;;9.33;;
32826;SDS011;51059;42.058;27.986;2023-01-29T11:15:42;19.00;;;8.80;;
32826;SDS011;51059;42.058;27.986;2023-01-29T11:18:11;17.27;;;7.90;;
32826;SDS011;51059;42.058;27.986;2023-01-29T11:20:42;15.67;;;8.43;;
32826;SDS011;51059;42.058;27.986;2023-01-29T11:23:25;20.07;;;8.27;;
32826;SDS011;51059;42.058;27.986;2023-01-29T11:25:52;13.73;;;8.03;;
32826;SDS011;51059;42.058;27.986;2023-01-29T11:31:26;15.83;;;8.13;;
32826;SDS011;51059;42.058;27.986;2023-01-29T11:34:04;16.30;;;7.13;;
32826;SDS011;51059;42.058;27.986;2023-01-29T11:36:43;13.60;;;7.53;;
32826;SDS011;51059;42.058;27.986;2023-01-29T11:39:20;13.87;;;8.37;;
32826;SDS011;51059;42.058;27.986;2023-01-29T11:41:57;16.23;;;8.40;;
32826;SDS011;51059;42.058;27.986;2023-01-29T11:47:11;13.67;;;7.73;;
32826;SDS011;51059;42.058;27.986;2023-01-29T11:49:48;16.97;;;8.30;;
32826;SDS011;51059;42.058;27.986;2023-01-29T11:52:16;15.70;;;8.97;;
32826;SDS011;51059;42.058;27.986;2023-01-29T11:57:31;13.83;;;7.80;;
32826;SDS011;51059;42.058;27.986;2023-01-29T11:59:59;15.13;;;8.10;;
32826;SDS011;51059;42.058;27.986;2023-01-29T12:02:48;15.27;;;8.47;;
32826;SDS011;51059;42.058;27.986;2023-01-29T12:05:22;16.00;;;7.97;;
32826;SDS011;51059;42.058;27.986;2023-01-29T12:07:49;14.50;;;8.27;;
32826;SDS011;51059;42.058;27.986;2023-01-29T12:10:34;13.60;;;7.57;;
32826;SDS011;51059;42.058;27.986;2023-01-29T12:15:39;14.60;;;8.13;;
32826;SDS011;51059;42.058;27.986;2023-01-29T12:20:49;16.40;;;8.00;;
32826;SDS011;51059;42.058;27.986;2023-01-29T12:25:50;15.57;;;7.80;;
32826;SDS011;51059;42.058;27.986;2023-01-29T12:28:22;18.33;;;7.83;;
32826;SDS011;51059;42.058;27.986;2023-01-29T12:30:58;17.60;;;7.67;;
32826;SDS011;51059;42.058;27.986;2023-01-29T12:33:49;20.73;;;7.83;;
32826;SDS011;51059;42.058;27.986;2023-01-29T12:36:18;16.27;;;7.57;;
32826;SDS011;51059;42.058;27.986;2023-01-29T12:38:54;19.03;;;7.37;;
32826;SDS011;51059;42.058;27.986;2023-01-29T12:41:24;20.67;;;7.63;;
32826;SDS011;51059;42.058;27.986;2023-01-29T12:43:57;16.07;;;8.20;;
32826;SDS011;51059;42.058;27.986;2023-01-29T12:46:39;13.27;;;7.80;;
32826;SDS011;51059;42.058;27.986;2023-01-29T12:49:13;18.10;;;8.03;;
32826;SDS011;51059;42.058;27.986;2023-01-29T12:51:46;16.03;;;7.80;;
32826;SDS011;51059;42.058;27.986;2023-01-29T12:54:17;13.13;;;6.80;;
32826;SDS011;51059;42.058;27.986;2023-01-29T12:56:50;14.40;;;7.43;;
32826;SDS011;51059;42.058;27.986;2023-01-29T13:02:16;15.87;;;6.70;;
32826;SDS011;51059;42.058;27.986;2023-01-29T13:07:38;15.73;;;7.20;;
32826;SDS011;51059;42.058;27.986;2023-01-29T13:10:13;16.57;;;7.03;;
32826;SDS011;51059;42.058;27.986;2023-01-29T13:12:47;16.43;;;7.40;;
32826;SDS011;51059;42.058;27.986;2023-01-29T13:15:26;15.33;;;8.60;;
32826;SDS011;51059;42.058;27.986;2023-01-29T13:18:01;13.47;;;7.83;;
32826;SDS011;51059;42.058;27.986;2023-01-29T13:20:36;14.33;;;9.30;;
32826;SDS011;51059;42.058;27.986;2023-01-29T13:23:05;13.00;;;8.30;;
32826;SDS011;51059;42.058;27.986;2023-01-29T13:25:53;13.03;;;8.53;;
32826;SDS011;51059;42.058;27.986;2023-01-29T13:28:20;14.03;;;8.63;;
32826;SDS011;51059;42.058;27.986;2023-01-29T13:31:05;17.27;;;9.07;;
32826;SDS011;51059;42.058;27.986;2023-01-29T13:33:39;14.97;;;9.03;;
32826;SDS011;51059;42.058;27.986;2023-01-29T13:36:06;12.97;;;8.90;;
32826;SDS011;51059;42.058;27.986;2023-01-29T13:38:39;16.23;;;8.43;;
32826;SDS011;51059;42.058;27.986;2023-01-29T13:41:09;13.10;;;8.27;;
32826;SDS011;51059;42.058;27.986;2023-01-29T13:43:39;12.70;;;8.43;;
32826;SDS011;51059;42.058;27.986;2023-01-29T13:46:12;12.90;;;8.23;;
32826;SDS011;51059;42.058;27.986;2023-01-29T13:48:40;12.20;;;7.93;;
32826;SDS011;51059;42.058;27.986;2023-01-29T13:51:10;14.30;;;8.40;;
32826;SDS011;51059;42.058;27.986;2023-01-29T13:53:41;11.87;;;8.00;;
32826;SDS011;51059;42.058;27.986;2023-01-29T13:58:53;12.80;;;8.07;;
32826;SDS011;51059;42.058;27.986;2023-01-29T14:04:24;14.40;;;9.10;;
32826;SDS011;51059;42.058;27.986;2023-01-29T14:07:01;12.07;;;8.30;;
32826;SDS011;51059;42.058;27.986;2023-01-29T14:09:31;13.50;;;8.30;;
32826;SDS011;51059;42.058;27.986;2023-01-29T14:17:23;10.50;;;7.10;;
32826;SDS011;51059;42.058;27.986;2023-01-29T14:19:51;10.73;;;7.37;;
32826;SDS011;51059;42.058;27.986;2023-01-29T14:22:19;13.60;;;8.30;;
32826;SDS011;51059;42.058;27.986;2023-01-29T14:24:46;12.30;;;8.57;;
32826;SDS011;51059;42.058;27.986;2023-01-29T14:27:21;12.97;;;8.67;;
32826;SDS011;51059;42.058;27.986;2023-01-29T14:29:49;12.57;;;8.10;;
32826;SDS011;51059;42.058;27.986;2023-01-29T14:32:21;12.17;;;7.93;;
32826;SDS011;51059;42.058;27.986;2023-01-29T14:34:58;14.07;;;8.80;;
32826;SDS011;51059;42.058;27.986;2023-01-29T14:37:32;13.60;;;8.27;;
32826;SDS011;51059;42.058;27.986;2023-01-29T14:40:11;13.30;;;8.03;;
32826;SDS011;51059;42.058;27.986;2023-01-29T14:43:01;13.07;;;8.17;;
32826;SDS011;51059;42.058;27.986;2023-01-29T14:45:33;14.37;;;9.10;;
32826;SDS011;51059;42.058;27.986;2023-01-29T14:55:49;13.73;;;8.10;;
32826;SDS011;51059;42.058;27.986;2023-01-29T15:09:32;13.17;;;8.73;;
32826;SDS011;51059;42.058;27.986;2023-01-29T15:12:08;12.77;;;8.07;;
32826;SDS011;51059;42.058;27.986;2023-01-29T15:14:46;13.63;;;8.67;;
32826;SDS011;51059;42.058;27.986;2023-01-29T15:17:35;13.80;;;8.57;;
32826;SDS011;51059;42.058;27.986;2023-01-29T15:22:56;16.73;;;9.40;;
32826;SDS011;51059;42.058;27.986;2023-01-29T15:25:22;19.83;;;9.07;;
32826;SDS011;51059;42.058;27.986;2023-01-29T15:27:48;19.53;;;9.00;;
32826;SDS011;51059;42.058;27.986;2023-01-29T15:30:15;16.30;;;8.03;;
32826;SDS011;51059;42.058;27.986;2023-01-29T15:32:45;13.13;;;8.27;;
32826;SDS011;51059;42.058;27.986;2023-01-29T15:37:58;14.53;;;9.33;;
32826;SDS011;51059;42.058;27.986;2023-01-29T15:40:25;16.73;;;9.33;;
32826;SDS011;51059;42.058;27.986;2023-01-29T15:42:51;18.47;;;8.77;;
32826;SDS011;51059;42.058;27.986;2023-01-29T15:45:38;16.87;;;8.67;;
32826;SDS011;51059;42.058;27.986;2023-01-29T15:48:06;15.57;;;8.27;;
32826;SDS011;51059;42.058;27.986;2023-01-29T15:50:38;15.73;;;8.63;;
32826;SDS011;51059;42.058;27.986;2023-01-29T15:53:05;13.63;;;8.33;;
32826;SDS011;51059;42.058;27.986;2023-01-29T15:55:33;15.53;;;8.17;;
32826;SDS011;51059;42.058;27.986;2023-01-29T15:57:59;17.07;;;9.33;;
32826;SDS011;51059;42.058;27.986;2023-01-29T16:00:26;20.70;;;9.80;;
32826;SDS011;51059;42.058;27.986;2023-01-29T16:02:53;17.00;;;9.07;;
32826;SDS011;51059;42.058;27.986;2023-01-29T16:05:20;15.87;;;9.30;;
32826;SDS011;51059;42.058;27.986;2023-01-29T16:07:48;15.57;;;8.67;;
32826;SDS011;51059;42.058;27.986;2023-01-29T16:10:16;15.30;;;8.87;;
32826;SDS011;51059;42.058;27.986;2023-01-29T16:12:45;14.80;;;8.17;;
32826;SDS011;51059;42.058;27.986;2023-01-29T16:15:19;13.23;;;8.03;;
32826;SDS011;51059;42.058;27.986;2023-01-29T16:17:53;15.30;;;8.03;;
32826;SDS011;51059;42.058;27.986;2023-01-29T16:20:42;13.37;;;7.70;;
32826;SDS011;51059;42.058;27.986;2023-01-29T16:23:08;13.43;;;7.73;;
32826;SDS011;51059;42.058;27.986;2023-01-29T16:25:41;17.17;;;9.60;;
32826;SDS011;51059;42.058;27.986;2023-01-29T16:28:07;17.60;;;8.70;;
32826;SDS011;51059;42.058;27.986;2023-01-29T16:30:35;21.40;;;8.70;;
32826;SDS011;51059;42.058;27.986;2023-01-29T16:33:02;15.20;;;8.93;;
32826;SDS011;51059;42.058;27.986;2023-01-29T16:35:29;15.73;;;9.53;;
32826;SDS011;51059;42.058;27.986;2023-01-29T16:37:56;17.10;;;9.03;;
32826;SDS011;51059;42.058;27.986;2023-01-29T16:40:30;19.13;;;9.80;;
32826;SDS011;51059;42.058;27.986;2023-01-29T16:46:02;15.37;;;9.20;;
32826;SDS011;51059;42.058;27.986;2023-01-29T16:48:33;24.10;;;9.40;;
32826;SDS011;51059;42.058;27.986;2023-01-29T16:51:03;17.87;;;8.47;;
32826;SDS011;51059;42.058;27.986;2023-01-29T16:53:30;18.80;;;8.53;;
32826;SDS011;51059;42.058;27.986;2023-01-29T16:56:00;16.50;;;8.67;;